sensor_id;sensor_type;location;lat;lon;timestamp;pressure;altitude;pressure_sealevel;temperature;humidity
23733;BME280;12047;53.450;-2.286;2023-03-31T00:03:46;98825.34;;;16.27;100.00
23733;BME280;12047;53.450;-2.286;2023-03-31T00:08:47;98804.88;;;16.14;100.00
23733;BME280;12047;53.450;-2.286;2023-03-31T00:13:50;98800.50;;;15.77;100.00
23733;BME280;12047;53.450;-2.286;2023-03-31T00:18:51;98772.03;;;15.89;100.00
23733;BME280;12047;53.450;-2.286;2023-03-31T00:23:53;98767.53;;;16.32;100.00
23733;BME280;12047;53.450;-2.286;2023-03-31T00:28:54;98749.78;;;15.77;100.00
23733;BME280;12047;53.450;-2.286;2023-03-31T00:33:55;98730.84;;;15.53;100.00
23733;BME280;12047;53.450;-2.286;2023-03-31T00:39:00;98727.81;;;15.75;100.00
23733;BME280;12047;53.450;-2.286;2023-03-31T00:44:11;98710.41;;;15.90;100.00
23733;BME280;12047;53.450;-2.286;2023-03-31T00:49:22;98687.00;;;15.43;100.00
23733;BME280;12047;53.450;-2.286;2023-03-31T00:54:26;98677.59;;;15.65;100.00
23733;BME280;12047;53.450;-2.286;2023-03-31T00:59:29;98671.53;;;15.26;100.00
23733;BME280;12047;53.450;-2.286;2023-03-31T01:04:44;98655.56;;;15.88;100.00
23733;BME280;12047;53.450;-2.286;2023-03-31T01:09:47;98640.81;;;15.42;100.00
23733;BME280;12047;53.450;-2.286;2023-03-31T01:14:48;98630.88;;;15.31;100.00
23733;BME280;12047;53.450;-2.286;2023-03-31T01:20:16;98612.44;;;15.48;100.00
23733;BME280;12047;53.450;-2.286;2023-03-31T01:42:03;98558.13;;;15.17;100.00
23733;BME280;12047;53.450;-2.286;2023-03-31T01:47:18;98525.47;;;15.22;100.00
23733;BME280;12047;53.450;-2.286;2023-03-31T01:52:41;98510.16;;;14.92;100.00
23733;BME280;12047;53.450;-2.286;2023-03-31T01:57:49;98491.84;;;14.78;100.00
23733;BME280;12047;53.450;-2.286;2023-03-31T02:02:59;98485.19;;;14.87;100.00
23733;BME280;12047;53.450;-2.286;2023-03-31T02:08:10;98465.41;;;14.94;100.00
23733;BME280;12047;53.450;-2.286;2023-03-31T02:13:19;98453.34;;;14.92;100.00
23733;BME280;12047;53.450;-2.286;2023-03-31T02:18:25;98438.69;;;15.19;100.00
23733;BME280;12047;53.450;-2.286;2023-03-31T02:23:32;98417.28;;;14.89;100.00
23733;BME280;12047;53.450;-2.286;2023-03-31T02:28:36;98407.94;;;15.17;100.00
23733;BME280;12047;53.450;-2.286;2023-03-31T02:33:37;98396.69;;;15.15;100.00
23733;BME280;12047;53.450;-2.286;2023-03-31T02:38:50;98381.56;;;15.27;100.00
23733;BME280;12047;53.450;-2.286;2023-03-31T02:43:53;98372.97;;;15.25;100.00
23733;BME280;12047;53.450;-2.286;2023-03-31T02:48:56;98362.81;;;15.15;100.00
23733;BME280;12047;53.450;-2.286;2023-03-31T03:10:17;98312.34;;;15.62;100.00
23733;BME280;12047;53.450;-2.286;2023-03-31T03:15:48;98304.50;;;15.19;100.00
23733;BME280;12047;53.450;-2.286;2023-03-31T03:20:50;98295.84;;;15.23;100.00
23733;BME280;12047;53.450;-2.286;2023-03-31T03:25:52;98283.53;;;15.22;100.00
23733;BME280;12047;53.450;-2.286;2023-03-31T03:30:53;98267.25;;;15.42;100.00
23733;BME280;12047;53.450;-2.286;2023-03-31T03:35:53;98251.94;;;15.49;100.00
23733;BME280;12047;53.450;-2.286;2023-03-31T03:40:54;98239.25;;;15.86;100.00
23733;BME280;12047;53.450;-2.286;2023-03-31T03:46:02;98239.66;;;15.48;100.00
23733;BME280;12047;53.450;-2.286;2023-03-31T03:57:11;98195.31;;;15.36;100.00
23733;BME280;12047;53.450;-2.286;2023-03-31T04:02:13;98206.88;;;15.18;100.00
23733;BME280;12047;53.450;-2.286;2023-03-31T04:07:15;98184.16;;;15.27;100.00
23733;BME280;12047;53.450;-2.286;2023-03-31T04:12:16;98181.59;;;15.20;100.00
23733;BME280;12047;53.450;-2.286;2023-03-31T04:17:17;98169.53;;;15.18;100.00
23733;BME280;12047;53.450;-2.286;2023-03-31T04:22:17;98165.63;;;15.32;100.00
23733;BME280;12047;53.450;-2.286;2023-03-31T04:27:20;98156.44;;;15.40;100.00
23733;BME280;12047;53.450;-2.286;2023-03-31T04:32:22;98147.19;;;15.30;100.00
23733;BME280;12047;53.450;-2.286;2023-03-31T04:37:23;98143.72;;;15.65;100.00
23733;BME280;12047;53.450;-2.286;2023-03-31T04:42:27;98138.41;;;15.77;100.00
23733;BME280;12047;53.450;-2.286;2023-03-31T04:47:31;98127.09;;;15.05;100.00
23733;BME280;12047;53.450;-2.286;2023-03-31T04:52:34;98119.56;;;15.48;100.00
23733;BME280;12047;53.450;-2.286;2023-03-31T04:57:34;98113.66;;;15.46;100.00
23733;BME280;12047;53.450;-2.286;2023-03-31T05:02:36;98112.50;;;15.54;100.00
23733;BME280;12047;53.450;-2.286;2023-03-31T05:13:34;98095.78;;;15.35;100.00
23733;BME280;12047;53.450;-2.286;2023-03-31T05:18:35;98087.44;;;15.31;100.00
23733;BME280;12047;53.450;-2.286;2023-03-31T05:23:35;98088.13;;;15.04;100.00
23733;BME280;12047;53.450;-2.286;2023-03-31T05:28:36;98093.00;;;15.42;100.00
23733;BME280;12047;53.450;-2.286;2023-03-31T05:33:37;98087.69;;;15.30;100.00
23733;BME280;12047;53.450;-2.286;2023-03-31T05:38:41;98083.97;;;15.43;100.00
23733;BME280;12047;53.450;-2.286;2023-03-31T05:43:42;98076.78;;;15.31;100.00
23733;BME280;12047;53.450;-2.286;2023-03-31T05:48:46;98089.53;;;15.41;100.00
23733;BME280;12047;53.450;-2.286;2023-03-31T05:53:46;98085.16;;;15.58;100.00
23733;BME280;12047;53.450;-2.286;2023-03-31T05:58:47;98081.09;;;16.08;100.00
23733;BME280;12047;53.450;-2.286;2023-03-31T06:03:51;98085.81;;;15.54;100.00
23733;BME280;12047;53.450;-2.286;2023-03-31T06:08:51;98088.94;;;15.39;100.00
23733;BME280;12047;53.450;-2.286;2023-03-31T06:13:57;98089.19;;;15.61;100.00
23733;BME280;12047;53.450;-2.286;2023-03-31T06:18:58;98088.13;;;15.62;100.00
23733;BME280;12047;53.450;-2.286;2023-03-31T06:23:59;98096.66;;;15.59;100.00
23733;BME280;12047;53.450;-2.286;2023-03-31T06:29:00;98087.63;;;16.00;100.00
23733;BME280;12047;53.450;-2.286;2023-03-31T06:34:00;98102.75;;;15.59;100.00
23733;BME280;12047;53.450;-2.286;2023-03-31T06:39:01;98097.53;;;15.53;100.00
23733;BME280;12047;53.450;-2.286;2023-03-31T06:44:02;98108.06;;;16.06;100.00
23733;BME280;12047;53.450;-2.286;2023-03-31T06:49:02;98095.44;;;15.78;100.00
23733;BME280;12047;53.450;-2.286;2023-03-31T06:54:06;98104.63;;;16.22;100.00
23733;BME280;12047;53.450;-2.286;2023-03-31T06:59:10;98102.75;;;15.59;100.00
23733;BME280;12047;53.450;-2.286;2023-03-31T07:04:11;98108.78;;;15.55;100.00
23733;BME280;12047;53.450;-2.286;2023-03-31T07:09:11;98115.53;;;15.81;100.00
23733;BME280;12047;53.450;-2.286;2023-03-31T07:14:11;98111.94;;;15.63;100.00
23733;BME280;12047;53.450;-2.286;2023-03-31T07:19:12;98119.13;;;15.75;100.00
23733;BME280;12047;53.450;-2.286;2023-03-31T07:24:14;98122.41;;;16.17;100.00
23733;BME280;12047;53.450;-2.286;2023-03-31T07:29:18;98133.84;;;15.89;100.00
23733;BME280;12047;53.450;-2.286;2023-03-31T07:34:24;98122.75;;;16.09;100.00
23733;BME280;12047;53.450;-2.286;2023-03-31T07:39:25;98131.50;;;16.04;100.00
23733;BME280;12047;53.450;-2.286;2023-03-31T07:44:25;98139.56;;;16.89;100.00
23733;BME280;12047;53.450;-2.286;2023-03-31T07:49:26;98142.34;;;16.66;100.00
23733;BME280;12047;53.450;-2.286;2023-03-31T07:54:26;98145.34;;;17.15;100.00
23733;BME280;12047;53.450;-2.286;2023-03-31T07:59:27;98154.09;;;16.65;100.00
23733;BME280;12047;53.450;-2.286;2023-03-31T08:04:27;98156.41;;;16.33;100.00
23733;BME280;12047;53.450;-2.286;2023-03-31T08:09:28;98159.09;;;16.21;100.00
23733;BME280;12047;53.450;-2.286;2023-03-31T08:14:29;98158.00;;;16.46;100.00
23733;BME280;12047;53.450;-2.286;2023-03-31T08:19:29;98167.63;;;16.47;100.00
23733;BME280;12047;53.450;-2.286;2023-03-31T08:24:30;98167.56;;;16.70;100.00
23733;BME280;12047;53.450;-2.286;2023-03-31T08:29:30;98177.22;;;16.59;100.00
23733;BME280;12047;53.450;-2.286;2023-03-31T08:34:31;98185.69;;;16.16;100.00
23733;BME280;12047;53.450;-2.286;2023-03-31T08:39:31;98184.66;;;16.69;100.00
23733;BME280;12047;53.450;-2.286;2023-03-31T08:50:27;98188.19;;;16.86;100.00
23733;BME280;12047;53.450;-2.286;2023-03-31T08:55:53;98195.16;;;16.87;100.00
23733;BME280;12047;53.450;-2.286;2023-03-31T09:06:04;98203.41;;;16.86;100.00
23733;BME280;12047;53.450;-2.286;2023-03-31T09:11:13;98207.38;;;16.83;100.00
23733;BME280;12047;53.450;-2.286;2023-03-31T09:16:26;98218.25;;;16.77;100.00
23733;BME280;12047;53.450;-2.286;2023-03-31T09:21:39;98226.53;;;16.52;100.00
23733;BME280;12047;53.450;-2.286;2023-03-31T09:27:06;98235.91;;;17.85;100.00
23733;BME280;12047;53.450;-2.286;2023-03-31T09:32:22;98242.59;;;17.20;100.00
23733;BME280;12047;53.450;-2.286;2023-03-31T09:37:30;98250.50;;;17.15;100.00
23733;BME280;12047;53.450;-2.286;2023-03-31T09:42:33;98248.03;;;17.42;100.00
23733;BME280;12047;53.450;-2.286;2023-03-31T09:47:38;98265.91;;;16.68;100.00
23733;BME280;12047;53.450;-2.286;2023-03-31T09:52:45;98273.09;;;16.79;100.00
23733;BME280;12047;53.450;-2.286;2023-03-31T09:57:47;98283.72;;;16.39;100.00
23733;BME280;12047;53.450;-2.286;2023-03-31T10:13:19;98301.47;;;17.37;100.00
23733;BME280;12047;53.450;-2.286;2023-03-31T10:18:31;98307.28;;;17.62;100.00
23733;BME280;12047;53.450;-2.286;2023-03-31T10:23:34;98322.38;;;16.83;100.00
23733;BME280;12047;53.450;-2.286;2023-03-31T10:28:35;98323.88;;;17.31;100.00
23733;BME280;12047;53.450;-2.286;2023-03-31T10:33:44;98331.88;;;17.03;100.00
23733;BME280;12047;53.450;-2.286;2023-03-31T10:38:48;98336.53;;;17.07;100.00
23733;BME280;12047;53.450;-2.286;2023-03-31T10:43:51;98344.53;;;17.35;100.00
23733;BME280;12047;53.450;-2.286;2023-03-31T10:48:53;98351.56;;;17.82;100.00
23733;BME280;12047;53.450;-2.286;2023-03-31T10:53:56;98362.53;;;17.80;100.00
23733;BME280;12047;53.450;-2.286;2023-03-31T11:04:46;98386.47;;;17.30;100.00
23733;BME280;12047;53.450;-2.286;2023-03-31T11:21:20;98400.66;;;17.71;100.00
23733;BME280;12047;53.450;-2.286;2023-03-31T11:42:06;98437.84;;;17.84;100.00
23733;BME280;12047;53.450;-2.286;2023-03-31T11:47:14;98451.38;;;17.37;100.00
23733;BME280;12047;53.450;-2.286;2023-03-31T11:52:18;98464.66;;;17.09;100.00
23733;BME280;12047;53.450;-2.286;2023-03-31T12:02:39;98484.00;;;16.99;100.00
23733;BME280;12047;53.450;-2.286;2023-03-31T12:18:21;98495.38;;;17.29;100.00
23733;BME280;12047;53.450;-2.286;2023-03-31T12:23:28;98508.06;;;17.11;100.00
23733;BME280;12047;53.450;-2.286;2023-03-31T12:28:30;98508.28;;;17.96;100.00
23733;BME280;12047;53.450;-2.286;2023-03-31T12:33:37;98517.13;;;17.96;100.00
23733;BME280;12047;53.450;-2.286;2023-03-31T12:39:17;98529.88;;;17.78;100.00
23733;BME280;12047;53.450;-2.286;2023-03-31T12:50:07;98532.50;;;18.01;100.00
23733;BME280;12047;53.450;-2.286;2023-03-31T13:00:35;98561.91;;;18.41;100.00
23733;BME280;12047;53.450;-2.286;2023-03-31T13:11:08;98564.66;;;18.01;100.00
23733;BME280;12047;53.450;-2.286;2023-03-31T13:16:08;98577.16;;;18.52;100.00
23733;BME280;12047;53.450;-2.286;2023-03-31T13:21:09;98580.25;;;18.61;100.00
23733;BME280;12047;53.450;-2.286;2023-03-31T13:42:50;98626.84;;;18.03;100.00
23733;BME280;12047;53.450;-2.286;2023-03-31T14:09:29;98664.94;;;17.93;100.00
23733;BME280;12047;53.450;-2.286;2023-03-31T14:14:31;98665.25;;;18.20;100.00
23733;BME280;12047;53.450;-2.286;2023-03-31T14:19:57;98675.13;;;18.31;100.00
23733;BME280;12047;53.450;-2.286;2023-03-31T14:25:23;98688.94;;;19.09;100.00
23733;BME280;12047;53.450;-2.286;2023-03-31T14:30:35;98698.66;;;18.41;100.00
23733;BME280;12047;53.450;-2.286;2023-03-31T14:35:54;98708.53;;;18.52;100.00
23733;BME280;12047;53.450;-2.286;2023-03-31T14:40:57;98719.75;;;18.38;100.00
23733;BME280;12047;53.450;-2.286;2023-03-31T14:46:07;98724.41;;;18.42;100.00
23733;BME280;12047;53.450;-2.286;2023-03-31T16:18:24;98893.69;;;17.51;100.00
23733;BME280;12047;53.450;-2.286;2023-03-31T16:23:28;98907.56;;;17.59;100.00
23733;BME280;12047;53.450;-2.286;2023-03-31T16:57:43;98962.41;;;18.05;100.00
23733;BME280;12047;53.450;-2.286;2023-03-31T17:03:00;98973.50;;;17.42;100.00
23733;BME280;12047;53.450;-2.286;2023-03-31T17:14:00;98995.19;;;17.89;100.00
23733;BME280;12047;53.450;-2.286;2023-03-31T17:25:23;99026.09;;;17.55;100.00
23733;BME280;12047;53.450;-2.286;2023-03-31T17:30:44;99040.41;;;17.24;100.00
23733;BME280;12047;53.450;-2.286;2023-03-31T17:36:20;99058.28;;;17.30;100.00
23733;BME280;12047;53.450;-2.286;2023-03-31T17:47:34;99083.69;;;16.71;100.00
23733;BME280;12047;53.450;-2.286;2023-03-31T17:53:09;99095.69;;;17.12;100.00
23733;BME280;12047;53.450;-2.286;2023-03-31T18:04:53;99129.81;;;16.91;100.00
23733;BME280;12047;53.450;-2.286;2023-03-31T18:28:16;99184.53;;;17.95;100.00
23733;BME280;12047;53.450;-2.286;2023-03-31T18:39:11;99212.72;;;17.54;100.00
23733;BME280;12047;53.450;-2.286;2023-03-31T18:44:16;99223.94;;;16.82;100.00
23733;BME280;12047;53.450;-2.286;2023-03-31T18:49:16;99239.28;;;16.42;100.00
23733;BME280;12047;53.450;-2.286;2023-03-31T18:54:19;99255.38;;;16.28;100.00
23733;BME280;12047;53.450;-2.286;2023-03-31T18:59:20;99262.53;;;16.41;100.00
23733;BME280;12047;53.450;-2.286;2023-03-31T19:04:20;99271.44;;;16.15;100.00
23733;BME280;12047;53.450;-2.286;2023-03-31T19:09:21;99283.16;;;16.21;100.00
23733;BME280;12047;53.450;-2.286;2023-03-31T19:14:25;99299.84;;;16.03;100.00
23733;BME280;12047;53.450;-2.286;2023-03-31T19:19:26;99309.78;;;16.67;100.00
23733;BME280;12047;53.450;-2.286;2023-03-31T19:24:27;99313.69;;;16.58;100.00
23733;BME280;12047;53.450;-2.286;2023-03-31T19:29:28;99324.59;;;17.08;100.00
23733;BME280;12047;53.450;-2.286;2023-03-31T19:34:31;99336.00;;;16.96;100.00
23733;BME280;12047;53.450;-2.286;2023-03-31T19:39:32;99336.69;;;16.59;100.00
23733;BME280;12047;53.450;-2.286;2023-03-31T19:44:33;99344.16;;;16.57;100.00
23733;BME280;12047;53.450;-2.286;2023-03-31T19:49:35;99362.03;;;17.21;100.00
23733;BME280;12047;53.450;-2.286;2023-03-31T19:54:36;99367.56;;;16.81;100.00
23733;BME280;12047;53.450;-2.286;2023-03-31T19:59:39;99374.56;;;16.69;100.00
23733;BME280;12047;53.450;-2.286;2023-03-31T20:04:40;99394.75;;;16.39;100.00
23733;BME280;12047;53.450;-2.286;2023-03-31T20:09:41;99391.91;;;16.01;100.00
23733;BME280;12047;53.450;-2.286;2023-03-31T20:14:42;99404.81;;;16.70;100.00
23733;BME280;12047;53.450;-2.286;2023-03-31T20:19:43;99414.91;;;16.08;100.00
23733;BME280;12047;53.450;-2.286;2023-03-31T20:24:44;99414.47;;;16.77;100.00
23733;BME280;12047;53.450;-2.286;2023-03-31T20:29:44;99431.34;;;16.58;100.00
23733;BME280;12047;53.450;-2.286;2023-03-31T20:34:45;99439.56;;;16.63;100.00
23733;BME280;12047;53.450;-2.286;2023-03-31T20:39:46;99437.13;;;16.68;100.00
23733;BME280;12047;53.450;-2.286;2023-03-31T20:44:47;99449.44;;;16.43;100.00
23733;BME280;12047;53.450;-2.286;2023-03-31T20:49:48;99458.09;;;16.58;100.00
23733;BME280;12047;53.450;-2.286;2023-03-31T20:54:49;99459.94;;;16.71;100.00
23733;BME280;12047;53.450;-2.286;2023-03-31T20:59:50;99479.28;;;16.66;100.00
23733;BME280;12047;53.450;-2.286;2023-03-31T21:04:51;99486.00;;;16.09;100.00
23733;BME280;12047;53.450;-2.286;2023-03-31T21:09:52;99490.16;;;16.25;100.00
23733;BME280;12047;53.450;-2.286;2023-03-31T21:14:55;99499.81;;;16.06;100.00
23733;BME280;12047;53.450;-2.286;2023-03-31T21:19:56;99501.84;;;15.50;100.00
23733;BME280;12047;53.450;-2.286;2023-03-31T21:24:56;99518.72;;;16.18;100.00
23733;BME280;12047;53.450;-2.286;2023-03-31T21:29:57;99522.22;;;16.18;100.00
23733;BME280;12047;53.450;-2.286;2023-03-31T21:34:58;99533.72;;;16.12;100.00
23733;BME280;12047;53.450;-2.286;2023-03-31T21:39:58;99546.41;;;15.49;100.00
23733;BME280;12047;53.450;-2.286;2023-03-31T21:44:59;99551.34;;;15.52;100.00
23733;BME280;12047;53.450;-2.286;2023-03-31T21:50:00;99559.31;;;15.46;100.00
23733;BME280;12047;53.450;-2.286;2023-03-31T21:55:04;99575.84;;;14.51;100.00
23733;BME280;12047;53.450;-2.286;2023-03-31T22:00:06;99585.56;;;15.08;100.00
23733;BME280;12047;53.450;-2.286;2023-03-31T22:05:14;99583.78;;;15.49;100.00
23733;BME280;12047;53.450;-2.286;2023-03-31T22:10:15;99595.25;;;15.15;100.00
23733;BME280;12047;53.450;-2.286;2023-03-31T22:15:19;99607.34;;;14.83;100.00
23733;BME280;12047;53.450;-2.286;2023-03-31T22:20:21;99614.31;;;14.63;100.00
23733;BME280;12047;53.450;-2.286;2023-03-31T22:25:28;99622.25;;;14.78;100.00
23733;BME280;12047;53.450;-2.286;2023-03-31T22:30:29;99630.81;;;14.52;100.00
23733;BME280;12047;53.450;-2.286;2023-03-31T22:35:31;99645.59;;;14.97;100.00
23733;BME280;12047;53.450;-2.286;2023-03-31T22:40:38;99642.59;;;14.85;100.00
23733;BME280;12047;53.450;-2.286;2023-03-31T22:45:39;99662.41;;;14.40;100.00
23733;BME280;12047;53.450;-2.286;2023-03-31T22:50:41;99668.13;;;14.52;100.00
23733;BME280;12047;53.450;-2.286;2023-03-31T22:55:44;99680.56;;;14.66;100.00
23733;BME280;12047;53.450;-2.286;2023-03-31T23:00:44;99693.03;;;14.59;100.00
23733;BME280;12047;53.450;-2.286;2023-03-31T23:05:45;99696.38;;;14.68;100.00
23733;BME280;12047;53.450;-2.286;2023-03-31T23:10:55;99708.03;;;14.81;100.00
23733;BME280;12047;53.450;-2.286;2023-03-31T23:16:04;99713.81;;;14.34;100.00
23733;BME280;12047;53.450;-2.286;2023-03-31T23:21:05;99721.59;;;14.86;100.00
23733;BME280;12047;53.450;-2.286;2023-03-31T23:26:07;99727.41;;;14.54;100.00
23733;BME280;12047;53.450;-2.286;2023-03-31T23:31:08;99738.81;;;14.33;100.00
23733;BME280;12047;53.450;-2.286;2023-03-31T23:36:09;99738.81;;;14.18;100.00
23733;BME280;12047;53.450;-2.286;2023-03-31T23:41:10;99743.56;;;14.38;100.00
23733;BME280;12047;53.450;-2.286;2023-03-31T23:46:11;99752.88;;;14.12;100.00
23733;BME280;12047;53.450;-2.286;2023-03-31T23:51:12;99756.59;;;14.77;100.00
23733;BME280;12047;53.450;-2.286;2023-03-31T23:56:13;99772.03;;;14.81;100.00
